sensor_id;sensor_type;location;lat;lon;timestamp;pressure;altitude;pressure_sealevel;temperature;humidity
13594;BME280;6449;47.666;9.160;2022-10-16T00:01:20;96949.47;;;13.44;100.00
13594;BME280;6449;47.666;9.160;2022-10-16T00:06:15;96952.28;;;13.31;100.00
13594;BME280;6449;47.666;9.160;2022-10-16T00:11:12;96939.91;;;13.43;100.00
13594;BME280;6449;47.666;9.160;2022-10-16T00:16:08;96935.50;;;13.53;100.00
13594;BME280;6449;47.666;9.160;2022-10-16T00:21:08;96935.50;;;13.63;100.00
13594;BME280;6449;47.666;9.160;2022-10-16T00:26:05;96930.78;;;13.57;100.00
13594;BME280;6449;47.666;9.160;2022-10-16T00:30:58;96933.56;;;13.55;100.00
13594;BME280;6449;47.666;9.160;2022-10-16T00:35:53;96932.75;;;13.65;100.00
13594;BME280;6449;47.666;9.160;2022-10-16T00:40:47;96914.75;;;13.70;100.00
13594;BME280;6449;47.666;9.160;2022-10-16T00:45:40;96934.56;;;13.64;100.00
13594;BME280;6449;47.666;9.160;2022-10-16T00:50:34;96936.00;;;13.47;100.00
13594;BME280;6449;47.666;9.160;2022-10-16T00:55:30;96928.63;;;13.41;100.00
13594;BME280;6449;47.666;9.160;2022-10-16T01:00:26;96935.06;;;13.48;100.00
13594;BME280;6449;47.666;9.160;2022-10-16T01:05:21;96930.75;;;13.47;100.00
13594;BME280;6449;47.666;9.160;2022-10-16T01:10:27;96944.88;;;13.46;100.00
13594;BME280;6449;47.666;9.160;2022-10-16T01:15:32;96929.66;;;13.50;100.00
13594;BME280;6449;47.666;9.160;2022-10-16T01:20:31;96942.25;;;13.46;100.00
13594;BME280;6449;47.666;9.160;2022-10-16T01:25:39;96935.91;;;13.49;100.00
13594;BME280;6449;47.666;9.160;2022-10-16T01:30:43;96934.63;;;13.53;100.00
13594;BME280;6449;47.666;9.160;2022-10-16T01:35:41;96939.59;;;13.46;100.00
13594;BME280;6449;47.666;9.160;2022-10-16T01:40:42;96940.75;;;13.53;100.00
13594;BME280;6449;47.666;9.160;2022-10-16T01:45:37;96945.75;;;13.56;100.00
13594;BME280;6449;47.666;9.160;2022-10-16T01:50:35;96953.75;;;13.45;100.00
13594;BME280;6449;47.666;9.160;2022-10-16T01:55:36;96956.69;;;13.52;100.00
13594;BME280;6449;47.666;9.160;2022-10-16T02:00:31;96953.66;;;13.56;100.00
13594;BME280;6449;47.666;9.160;2022-10-16T02:05:29;96947.72;;;13.64;100.00
13594;BME280;6449;47.666;9.160;2022-10-16T02:10:25;96943.53;;;13.61;100.00
13594;BME280;6449;47.666;9.160;2022-10-16T02:15:23;96949.34;;;13.55;100.00
13594;BME280;6449;47.666;9.160;2022-10-16T02:20:17;96947.84;;;13.62;100.00
13594;BME280;6449;47.666;9.160;2022-10-16T02:25:21;96951.81;;;13.47;100.00
13594;BME280;6449;47.666;9.160;2022-10-16T02:30:23;96937.25;;;13.43;100.00
13594;BME280;6449;47.666;9.160;2022-10-16T02:35:20;96943.22;;;13.45;100.00
13594;BME280;6449;47.666;9.160;2022-10-16T02:40:15;96917.75;;;13.55;100.00
13594;BME280;6449;47.666;9.160;2022-10-16T02:45:15;96941.81;;;13.41;100.00
13594;BME280;6449;47.666;9.160;2022-10-16T02:50:10;96946.88;;;13.54;100.00
13594;BME280;6449;47.666;9.160;2022-10-16T02:55:04;96939.78;;;13.54;100.00
13594;BME280;6449;47.666;9.160;2022-10-16T02:59:58;96952.28;;;13.62;100.00
13594;BME280;6449;47.666;9.160;2022-10-16T03:04:51;96937.19;;;13.64;100.00
13594;BME280;6449;47.666;9.160;2022-10-16T03:09:46;96945.28;;;13.42;100.00
13594;BME280;6449;47.666;9.160;2022-10-16T03:14:39;96921.91;;;13.48;100.00
13594;BME280;6449;47.666;9.160;2022-10-16T03:19:32;96907.06;;;13.57;100.00
13594;BME280;6449;47.666;9.160;2022-10-16T03:24:26;96917.91;;;13.63;100.00
13594;BME280;6449;47.666;9.160;2022-10-16T03:29:21;96943.84;;;13.58;100.00
13594;BME280;6449;47.666;9.160;2022-10-16T03:34:14;96936.59;;;13.51;100.00
13594;BME280;6449;47.666;9.160;2022-10-16T03:39:07;96935.75;;;13.50;100.00
13594;BME280;6449;47.666;9.160;2022-10-16T03:44:01;96931.88;;;13.54;100.00
13594;BME280;6449;47.666;9.160;2022-10-16T03:48:55;96949.09;;;13.58;100.00
13594;BME280;6449;47.666;9.160;2022-10-16T03:53:49;96961.41;;;13.58;100.00
13594;BME280;6449;47.666;9.160;2022-10-16T03:58:42;96954.22;;;13.60;100.00
13594;BME280;6449;47.666;9.160;2022-10-16T04:03:35;96962.56;;;13.65;100.00
13594;BME280;6449;47.666;9.160;2022-10-16T04:08:30;96963.44;;;13.75;100.00
13594;BME280;6449;47.666;9.160;2022-10-16T04:13:26;96956.34;;;13.76;100.00
13594;BME280;6449;47.666;9.160;2022-10-16T04:18:19;96955.13;;;13.80;100.00
13594;BME280;6449;47.666;9.160;2022-10-16T04:23:12;96970.75;;;13.72;100.00
13594;BME280;6449;47.666;9.160;2022-10-16T04:28:07;96964.25;;;13.76;100.00
13594;BME280;6449;47.666;9.160;2022-10-16T04:33:00;96961.63;;;13.76;100.00
13594;BME280;6449;47.666;9.160;2022-10-16T04:37:53;96958.59;;;13.80;100.00
13594;BME280;6449;47.666;9.160;2022-10-16T04:42:47;96966.19;;;13.74;100.00
13594;BME280;6449;47.666;9.160;2022-10-16T04:47:41;96971.88;;;13.79;100.00
13594;BME280;6449;47.666;9.160;2022-10-16T04:52:35;96965.53;;;13.81;100.00
13594;BME280;6449;47.666;9.160;2022-10-16T04:57:28;96973.03;;;13.86;100.00
13594;BME280;6449;47.666;9.160;2022-10-16T05:02:22;96978.41;;;13.84;100.00
13594;BME280;6449;47.666;9.160;2022-10-16T05:07:17;96981.03;;;13.84;100.00
13594;BME280;6449;47.666;9.160;2022-10-16T05:12:10;96981.03;;;13.84;100.00
13594;BME280;6449;47.666;9.160;2022-10-16T05:17:03;96976.63;;;13.85;100.00
13594;BME280;6449;47.666;9.160;2022-10-16T05:21:56;96972.19;;;13.85;100.00
13594;BME280;6449;47.666;9.160;2022-10-16T05:26:51;96974.00;;;13.85;100.00
13594;BME280;6449;47.666;9.160;2022-10-16T05:31:45;96975.09;;;13.82;100.00
13594;BME280;6449;47.666;9.160;2022-10-16T05:36:38;96973.13;;;13.84;100.00
13594;BME280;6449;47.666;9.160;2022-10-16T05:41:31;96975.09;;;13.82;100.00
13594;BME280;6449;47.666;9.160;2022-10-16T05:46:26;96989.50;;;13.78;100.00
13594;BME280;6449;47.666;9.160;2022-10-16T05:51:19;96993.25;;;13.76;100.00
13594;BME280;6449;47.666;9.160;2022-10-16T05:56:13;97007.94;;;13.78;100.00
13594;BME280;6449;47.666;9.160;2022-10-16T06:01:10;97011.53;;;13.77;100.00
13594;BME280;6449;47.666;9.160;2022-10-16T06:06:13;97009.31;;;13.73;100.00
13594;BME280;6449;47.666;9.160;2022-10-16T06:11:10;97006.03;;;13.80;100.00
13594;BME280;6449;47.666;9.160;2022-10-16T06:16:05;97017.69;;;13.87;100.00
13594;BME280;6449;47.666;9.160;2022-10-16T06:20:58;97016.47;;;13.92;100.00
13594;BME280;6449;47.666;9.160;2022-10-16T06:25:53;97017.44;;;14.00;100.00
13594;BME280;6449;47.666;9.160;2022-10-16T06:30:46;97022.44;;;14.03;100.00
13594;BME280;6449;47.666;9.160;2022-10-16T06:35:40;97024.25;;;14.03;100.00
13594;BME280;6449;47.666;9.160;2022-10-16T06:40:33;97022.19;;;14.06;100.00
13594;BME280;6449;47.666;9.160;2022-10-16T06:45:28;97034.41;;;14.07;100.00
13594;BME280;6449;47.666;9.160;2022-10-16T06:50:21;97042.31;;;14.07;100.00
13594;BME280;6449;47.666;9.160;2022-10-16T06:55:15;97055.34;;;14.09;100.00
13594;BME280;6449;47.666;9.160;2022-10-16T07:00:09;97063.84;;;14.12;100.00
13594;BME280;6449;47.666;9.160;2022-10-16T07:05:05;97067.94;;;14.05;100.00
13594;BME280;6449;47.666;9.160;2022-10-16T07:09:58;97083.91;;;14.04;100.00
13594;BME280;6449;47.666;9.160;2022-10-16T07:14:52;97091.81;;;14.04;100.00
13594;BME280;6449;47.666;9.160;2022-10-16T07:19:46;97102.63;;;14.01;100.00
13594;BME280;6449;47.666;9.160;2022-10-16T07:24:41;97102.94;;;14.07;100.00
13594;BME280;6449;47.666;9.160;2022-10-16T07:29:39;97099.34;;;14.08;100.00
13594;BME280;6449;47.666;9.160;2022-10-16T07:34:32;97109.63;;;14.11;100.00
13594;BME280;6449;47.666;9.160;2022-10-16T07:39:25;97110.56;;;14.10;100.00
13594;BME280;6449;47.666;9.160;2022-10-16T07:44:20;97094.66;;;14.22;100.00
13594;BME280;6449;47.666;9.160;2022-10-16T07:49:14;97111.09;;;14.35;100.00
13594;BME280;6449;47.666;9.160;2022-10-16T07:54:08;97121.34;;;14.38;100.00
13594;BME280;6449;47.666;9.160;2022-10-16T07:59:02;97142.34;;;14.39;100.00
13594;BME280;6449;47.666;9.160;2022-10-16T08:03:56;97150.38;;;14.38;100.00
13594;BME280;6449;47.666;9.160;2022-10-16T08:08:50;97157.16;;;14.31;100.00
13594;BME280;6449;47.666;9.160;2022-10-16T08:13:43;97156.34;;;14.40;100.00
13594;BME280;6449;47.666;9.160;2022-10-16T08:18:38;97146.47;;;14.73;100.00
13594;BME280;6449;47.666;9.160;2022-10-16T08:23:34;97151.50;;;14.95;100.00
13594;BME280;6449;47.666;9.160;2022-10-16T08:28:27;97170.84;;;15.05;100.00
13594;BME280;6449;47.666;9.160;2022-10-16T08:33:21;97191.53;;;15.00;100.00
13594;BME280;6449;47.666;9.160;2022-10-16T08:38:14;97203.09;;;15.09;100.00
13594;BME280;6449;47.666;9.160;2022-10-16T08:43:33;97212.69;;;15.10;100.00
13594;BME280;6449;47.666;9.160;2022-10-16T08:48:36;97213.78;;;15.07;100.00
13594;BME280;6449;47.666;9.160;2022-10-16T08:53:43;97220.94;;;14.86;100.00
13594;BME280;6449;47.666;9.160;2022-10-16T08:58:39;97221.38;;;14.91;100.00
13594;BME280;6449;47.666;9.160;2022-10-16T09:04:05;97222.13;;;15.12;100.00
13594;BME280;6449;47.666;9.160;2022-10-16T09:09:23;97221.66;;;15.67;100.00
13594;BME280;6449;47.666;9.160;2022-10-16T09:14:40;97240.94;;;15.96;100.00
13594;BME280;6449;47.666;9.160;2022-10-16T09:19:46;97253.63;;;15.83;100.00
13594;BME280;6449;47.666;9.160;2022-10-16T09:24:43;97258.88;;;16.12;100.00
13594;BME280;6449;47.666;9.160;2022-10-16T09:29:38;97254.78;;;16.37;100.00
13594;BME280;6449;47.666;9.160;2022-10-16T09:34:34;97274.56;;;16.33;100.00
13594;BME280;6449;47.666;9.160;2022-10-16T09:39:29;97282.53;;;16.23;100.00
13594;BME280;6449;47.666;9.160;2022-10-16T09:44:26;97300.06;;;16.34;100.00
13594;BME280;6449;47.666;9.160;2022-10-16T09:49:24;97285.94;;;16.63;100.00
13594;BME280;6449;47.666;9.160;2022-10-16T09:54:20;97299.59;;;16.58;100.00
13594;BME280;6449;47.666;9.160;2022-10-16T09:59:16;97285.78;;;16.74;100.00
13594;BME280;6449;47.666;9.160;2022-10-16T10:04:10;97299.06;;;16.92;100.00
13594;BME280;6449;47.666;9.160;2022-10-16T10:09:17;97297.91;;;17.04;100.00
13594;BME280;6449;47.666;9.160;2022-10-16T10:14:20;97294.22;;;17.15;100.00
13594;BME280;6449;47.666;9.160;2022-10-16T10:19:16;97293.56;;;17.31;100.00
13594;BME280;6449;47.666;9.160;2022-10-16T10:24:14;97285.78;;;17.29;100.00
13594;BME280;6449;47.666;9.160;2022-10-16T10:29:17;97288.03;;;17.24;100.00
13594;BME280;6449;47.666;9.160;2022-10-16T10:34:31;97278.38;;;17.33;100.00
13594;BME280;6449;47.666;9.160;2022-10-16T10:39:33;97291.25;;;17.27;100.00
13594;BME280;6449;47.666;9.160;2022-10-16T10:45:04;97292.75;;;17.30;100.00
13594;BME280;6449;47.666;9.160;2022-10-16T10:50:14;97284.34;;;17.35;100.00
13594;BME280;6449;47.666;9.160;2022-10-16T10:55:23;97291.63;;;17.33;100.00
13594;BME280;6449;47.666;9.160;2022-10-16T11:00:23;97293.19;;;17.25;100.00
13594;BME280;6449;47.666;9.160;2022-10-16T11:05:35;97293.88;;;17.27;100.00
13594;BME280;6449;47.666;9.160;2022-10-16T11:10:46;97288.59;;;17.27;100.00
13594;BME280;6449;47.666;9.160;2022-10-16T11:15:43;97286.22;;;17.24;100.00
13594;BME280;6449;47.666;9.160;2022-10-16T11:20:44;97286.00;;;17.36;100.00
13594;BME280;6449;47.666;9.160;2022-10-16T11:25:42;97280.44;;;17.39;100.00
13594;BME280;6449;47.666;9.160;2022-10-16T11:30:44;97275.94;;;17.39;100.00
13594;BME280;6449;47.666;9.160;2022-10-16T11:35:46;97275.19;;;17.47;100.00
13594;BME280;6449;47.666;9.160;2022-10-16T11:40:47;97269.59;;;17.50;100.00
13594;BME280;6449;47.666;9.160;2022-10-16T11:45:47;97267.44;;;17.63;100.00
13594;BME280;6449;47.666;9.160;2022-10-16T11:50:48;97256.22;;;17.69;100.00
13594;BME280;6449;47.666;9.160;2022-10-16T11:55:45;97244.06;;;17.67;100.00
13594;BME280;6449;47.666;9.160;2022-10-16T12:00:45;97250.91;;;17.69;100.00
13594;BME280;6449;47.666;9.160;2022-10-16T12:05:59;97242.13;;;17.87;100.00
13594;BME280;6449;47.666;9.160;2022-10-16T12:11:08;97231.84;;;18.10;100.00
13594;BME280;6449;47.666;9.160;2022-10-16T12:16:22;97237.16;;;18.36;100.00
13594;BME280;6449;47.666;9.160;2022-10-16T12:21:17;97228.00;;;18.30;100.00
13594;BME280;6449;47.666;9.160;2022-10-16T12:26:13;97229.41;;;18.16;100.00
13594;BME280;6449;47.666;9.160;2022-10-16T12:31:09;97226.00;;;18.24;100.00
13594;BME280;6449;47.666;9.160;2022-10-16T12:36:12;97219.63;;;18.43;100.00
13594;BME280;6449;47.666;9.160;2022-10-16T12:41:08;97218.78;;;18.42;100.00
13594;BME280;6449;47.666;9.160;2022-10-16T12:46:22;97208.84;;;18.44;100.00
13594;BME280;6449;47.666;9.160;2022-10-16T12:51:25;97208.41;;;18.57;100.00
13594;BME280;6449;47.666;9.160;2022-10-16T12:56:24;97200.09;;;18.52;100.00
13594;BME280;6449;47.666;9.160;2022-10-16T13:01:37;97202.31;;;18.65;100.00
13594;BME280;6449;47.666;9.160;2022-10-16T13:06:40;97208.22;;;18.76;100.00
13594;BME280;6449;47.666;9.160;2022-10-16T13:12:12;97205.56;;;18.76;100.00
13594;BME280;6449;47.666;9.160;2022-10-16T13:17:21;97205.69;;;18.75;100.00
13594;BME280;6449;47.666;9.160;2022-10-16T13:22:26;97210.34;;;18.73;100.00
13594;BME280;6449;47.666;9.160;2022-10-16T13:27:34;97202.78;;;18.60;100.00
13594;BME280;6449;47.666;9.160;2022-10-16T13:32:31;97201.81;;;18.61;100.00
13594;BME280;6449;47.666;9.160;2022-10-16T13:37:24;97209.00;;;18.69;100.00
13594;BME280;6449;47.666;9.160;2022-10-16T13:42:24;97214.34;;;18.77;100.00
13594;BME280;6449;47.666;9.160;2022-10-16T13:47:22;97208.56;;;18.81;100.00
13594;BME280;6449;47.666;9.160;2022-10-16T13:52:20;97212.75;;;18.92;100.00
13594;BME280;6449;47.666;9.160;2022-10-16T13:57:15;97211.41;;;18.88;100.00
13594;BME280;6449;47.666;9.160;2022-10-16T14:02:31;97204.75;;;18.84;100.00
13594;BME280;6449;47.666;9.160;2022-10-16T14:07:30;97212.22;;;18.89;100.00
13594;BME280;6449;47.666;9.160;2022-10-16T14:17:33;97220.38;;;18.87;100.00
13594;BME280;6449;47.666;9.160;2022-10-16T14:22:34;97213.06;;;18.89;100.00
13594;BME280;6449;47.666;9.160;2022-10-16T14:27:34;97214.22;;;18.87;100.00
13594;BME280;6449;47.666;9.160;2022-10-16T14:32:28;97210.22;;;18.82;100.00
13594;BME280;6449;47.666;9.160;2022-10-16T14:37:26;97214.19;;;18.78;100.00
13594;BME280;6449;47.666;9.160;2022-10-16T14:42:24;97208.22;;;18.76;100.00
13594;BME280;6449;47.666;9.160;2022-10-16T14:47:20;97207.50;;;18.74;100.00
13594;BME280;6449;47.666;9.160;2022-10-16T14:52:17;97212.00;;;18.74;100.00
13594;BME280;6449;47.666;9.160;2022-10-16T14:57:18;97199.56;;;18.74;100.00
13594;BME280;6449;47.666;9.160;2022-10-16T15:02:21;97196.41;;;18.79;100.00
13594;BME280;6449;47.666;9.160;2022-10-16T15:07:16;97198.59;;;18.83;100.00
13594;BME280;6449;47.666;9.160;2022-10-16T15:12:09;97208.91;;;18.87;100.00
13594;BME280;6449;47.666;9.160;2022-10-16T15:17:03;97206.75;;;18.82;100.00
13594;BME280;6449;47.666;9.160;2022-10-16T15:21:57;97212.53;;;18.77;100.00
13594;BME280;6449;47.666;9.160;2022-10-16T15:26:50;97203.53;;;18.70;100.00
13594;BME280;6449;47.666;9.160;2022-10-16T15:31:44;97212.78;;;18.66;100.00
13594;BME280;6449;47.666;9.160;2022-10-16T15:36:40;97216.06;;;18.60;100.00
13594;BME280;6449;47.666;9.160;2022-10-16T15:41:34;97217.69;;;18.53;100.00
13594;BME280;6449;47.666;9.160;2022-10-16T15:46:28;97216.97;;;18.43;100.00
13594;BME280;6449;47.666;9.160;2022-10-16T15:51:22;97221.56;;;18.32;100.00
13594;BME280;6449;47.666;9.160;2022-10-16T15:56:17;97215.00;;;18.19;100.00
13594;BME280;6449;47.666;9.160;2022-10-16T16:01:11;97223.53;;;18.04;100.00
13594;BME280;6449;47.666;9.160;2022-10-16T16:06:07;97228.56;;;17.90;100.00
13594;BME280;6449;47.666;9.160;2022-10-16T16:11:04;97226.13;;;17.78;100.00
13594;BME280;6449;47.666;9.160;2022-10-16T16:15:58;97226.34;;;17.67;100.00
13594;BME280;6449;47.666;9.160;2022-10-16T16:20:52;97239.53;;;17.59;100.00
13594;BME280;6449;47.666;9.160;2022-10-16T16:26:07;97223.41;;;17.52;100.00
13594;BME280;6449;47.666;9.160;2022-10-16T16:31:01;97236.03;;;17.41;100.00
13594;BME280;6449;47.666;9.160;2022-10-16T16:36:01;97236.41;;;17.28;100.00
13594;BME280;6449;47.666;9.160;2022-10-16T16:40:54;97246.84;;;17.12;100.00
13594;BME280;6449;47.666;9.160;2022-10-16T16:45:48;97256.81;;;17.00;100.00
13594;BME280;6449;47.666;9.160;2022-10-16T16:50:41;97263.41;;;16.86;100.00
13594;BME280;6449;47.666;9.160;2022-10-16T16:55:36;97268.75;;;16.76;100.00
13594;BME280;6449;47.666;9.160;2022-10-16T17:00:29;97279.66;;;16.64;100.00
13594;BME280;6449;47.666;9.160;2022-10-16T17:05:23;97285.66;;;16.56;100.00
13594;BME280;6449;47.666;9.160;2022-10-16T17:10:17;97294.00;;;16.61;100.00
13594;BME280;6449;47.666;9.160;2022-10-16T17:15:12;97294.81;;;16.62;100.00
13594;BME280;6449;47.666;9.160;2022-10-16T17:20:07;97313.69;;;16.49;100.00
13594;BME280;6449;47.666;9.160;2022-10-16T17:25:02;97328.06;;;16.37;100.00
13594;BME280;6449;47.666;9.160;2022-10-16T17:29:55;97335.31;;;16.25;100.00
13594;BME280;6449;47.666;9.160;2022-10-16T17:34:50;97343.00;;;16.09;100.00
13594;BME280;6449;47.666;9.160;2022-10-16T17:39:43;97348.41;;;16.07;100.00
13594;BME280;6449;47.666;9.160;2022-10-16T17:44:37;97346.88;;;15.95;100.00
13594;BME280;6449;47.666;9.160;2022-10-16T17:49:30;97357.72;;;15.82;100.00
13594;BME280;6449;47.666;9.160;2022-10-16T17:54:25;97364.66;;;15.74;100.00
13594;BME280;6449;47.666;9.160;2022-10-16T17:59:18;97375.50;;;15.70;100.00
13594;BME280;6449;47.666;9.160;2022-10-16T18:04:16;97380.25;;;15.67;100.00
13594;BME280;6449;47.666;9.160;2022-10-16T18:09:12;97392.56;;;15.57;100.00
13594;BME280;6449;47.666;9.160;2022-10-16T18:14:10;97402.13;;;15.48;100.00
13594;BME280;6449;47.666;9.160;2022-10-16T18:19:05;97403.25;;;15.45;100.00
13594;BME280;6449;47.666;9.160;2022-10-16T18:23:58;97412.81;;;15.37;100.00
13594;BME280;6449;47.666;9.160;2022-10-16T18:28:53;97405.72;;;15.37;100.00
13594;BME280;6449;47.666;9.160;2022-10-16T18:33:49;97413.03;;;15.24;100.00
13594;BME280;6449;47.666;9.160;2022-10-16T18:38:42;97418.28;;;15.14;100.00
13594;BME280;6449;47.666;9.160;2022-10-16T18:43:38;97425.03;;;15.07;100.00
13594;BME280;6449;47.666;9.160;2022-10-16T18:48:32;97425.75;;;15.09;100.00
13594;BME280;6449;47.666;9.160;2022-10-16T18:53:27;97427.25;;;15.02;100.00
13594;BME280;6449;47.666;9.160;2022-10-16T18:58:25;97437.53;;;15.05;100.00
13594;BME280;6449;47.666;9.160;2022-10-16T19:03:18;97442.13;;;15.03;100.00
13594;BME280;6449;47.666;9.160;2022-10-16T19:08:13;97447.41;;;14.82;100.00
13594;BME280;6449;47.666;9.160;2022-10-16T19:13:08;97454.81;;;14.67;100.00
13594;BME280;6449;47.666;9.160;2022-10-16T19:18:02;97456.41;;;14.80;100.00
13594;BME280;6449;47.666;9.160;2022-10-16T19:22:55;97453.66;;;14.81;100.00
13594;BME280;6449;47.666;9.160;2022-10-16T19:27:50;97466.34;;;14.66;100.00
13594;BME280;6449;47.666;9.160;2022-10-16T19:32:45;97458.66;;;14.63;100.00
13594;BME280;6449;47.666;9.160;2022-10-16T19:42:35;97475.72;;;14.59;100.00
13594;BME280;6449;47.666;9.160;2022-10-16T19:47:34;97480.63;;;14.64;100.00
13594;BME280;6449;47.666;9.160;2022-10-16T19:52:29;97481.00;;;14.59;100.00
13594;BME280;6449;47.666;9.160;2022-10-16T19:57:22;97484.09;;;14.64;100.00
13594;BME280;6449;47.666;9.160;2022-10-16T20:02:15;97492.28;;;14.61;100.00
13594;BME280;6449;47.666;9.160;2022-10-16T20:07:09;97493.69;;;14.65;100.00
13594;BME280;6449;47.666;9.160;2022-10-16T20:12:04;97493.25;;;14.60;100.00
13594;BME280;6449;47.666;9.160;2022-10-16T20:16:57;97504.69;;;14.50;100.00
13594;BME280;6449;47.666;9.160;2022-10-16T20:21:51;97502.63;;;14.42;100.00
13594;BME280;6449;47.666;9.160;2022-10-16T20:26:44;97502.88;;;14.39;100.00
13594;BME280;6449;47.666;9.160;2022-10-16T20:31:40;97501.69;;;14.32;100.00
13594;BME280;6449;47.666;9.160;2022-10-16T20:36:35;97510.03;;;14.05;100.00
13594;BME280;6449;47.666;9.160;2022-10-16T20:41:28;97514.84;;;13.88;100.00
13594;BME280;6449;47.666;9.160;2022-10-16T20:46:24;97521.19;;;13.97;100.00
13594;BME280;6449;47.666;9.160;2022-10-16T20:51:22;97531.72;;;14.08;100.00
13594;BME280;6449;47.666;9.160;2022-10-16T20:56:16;97539.88;;;14.05;100.00
13594;BME280;6449;47.666;9.160;2022-10-16T21:01:14;97547.44;;;13.99;100.00
13594;BME280;6449;47.666;9.160;2022-10-16T21:06:09;97543.50;;;13.93;100.00
13594;BME280;6449;47.666;9.160;2022-10-16T21:16:32;97571.66;;;13.70;100.00
13594;BME280;6449;47.666;9.160;2022-10-16T21:21:29;97574.63;;;13.66;100.00
13594;BME280;6449;47.666;9.160;2022-10-16T21:26:24;97577.28;;;13.66;100.00
13594;BME280;6449;47.666;9.160;2022-10-16T21:31:19;97577.97;;;13.79;100.00
13594;BME280;6449;47.666;9.160;2022-10-16T21:36:17;97579.06;;;13.87;100.00
13594;BME280;6449;47.666;9.160;2022-10-16T21:41:16;97582.81;;;13.85;100.00
13594;BME280;6449;47.666;9.160;2022-10-16T21:46:10;97588.44;;;13.80;100.00
13594;BME280;6449;47.666;9.160;2022-10-16T21:51:04;97586.84;;;13.67;100.00
13594;BME280;6449;47.666;9.160;2022-10-16T21:55:59;97597.25;;;13.57;100.00
13594;BME280;6449;47.666;9.160;2022-10-16T22:00:52;97592.81;;;13.57;100.00
13594;BME280;6449;47.666;9.160;2022-10-16T22:11:03;97596.91;;;13.61;100.00
13594;BME280;6449;47.666;9.160;2022-10-16T22:15:57;97598.81;;;13.48;100.00
13594;BME280;6449;47.666;9.160;2022-10-16T22:20:50;97591.94;;;13.34;100.00
13594;BME280;6449;47.666;9.160;2022-10-16T22:25:43;97595.94;;;13.51;100.00
13594;BME280;6449;47.666;9.160;2022-10-16T22:30:40;97595.78;;;13.42;100.00
13594;BME280;6449;47.666;9.160;2022-10-16T22:35:35;97603.19;;;13.36;100.00
13594;BME280;6449;47.666;9.160;2022-10-16T22:40:31;97599.50;;;13.15;100.00
13594;BME280;6449;47.666;9.160;2022-10-16T22:45:25;97592.75;;;13.24;100.00
13594;BME280;6449;47.666;9.160;2022-10-16T22:50:20;97583.00;;;13.37;100.00
13594;BME280;6449;47.666;9.160;2022-10-16T23:00:24;97587.66;;;13.33;100.00
13594;BME280;6449;47.666;9.160;2022-10-16T23:05:19;97588.41;;;13.11;100.00
13594;BME280;6449;47.666;9.160;2022-10-16T23:10:12;97598.47;;;13.18;100.00
13594;BME280;6449;47.666;9.160;2022-10-16T23:15:07;97607.53;;;13.14;100.00
13594;BME280;6449;47.666;9.160;2022-10-16T23:20:00;97598.34;;;13.19;100.00
13594;BME280;6449;47.666;9.160;2022-10-16T23:24:55;97605.47;;;13.30;100.00
13594;BME280;6449;47.666;9.160;2022-10-16T23:29:48;97611.84;;;13.39;100.00
13594;BME280;6449;47.666;9.160;2022-10-16T23:34:41;97611.81;;;13.03;100.00
13594;BME280;6449;47.666;9.160;2022-10-16T23:39:37;97599.97;;;13.09;100.00
13594;BME280;6449;47.666;9.160;2022-10-16T23:44:32;97605.34;;;12.96;100.00
13594;BME280;6449;47.666;9.160;2022-10-16T23:49:26;97618.50;;;12.96;100.00
13594;BME280;6449;47.666;9.160;2022-10-16T23:54:19;97615.63;;;12.99;100.00
13594;BME280;6449;47.666;9.160;2022-10-16T23:59:12;97610.09;;;12.91;100.00
